Time;durP1;ratioP1;P1;durP2;ratioP2;P2;SDS_P1;SDS_P2;PMS_P1;PMS_P2;Temp;Humidity;BMP_temperature;BMP_pressure;BME280_temperature;BME280_humidity;BME280_pressure;Samples;Min_cycle;Max_cycle;Signal;HPM_P1;HPM_P2
2022/11/24 00:01:59;;;;;;;14.20;5.50;;;7.00;99.90;;;;;;5108712;28;20043;-68
2022/11/24 00:04:25;;;;;;;14.85;5.05;;;7.00;99.90;;;;;;5109728;27;20380;-67
2022/11/24 00:06:52;;;;;;;16.60;5.22;;;7.00;99.90;;;;;;5111090;27;20051;-68
2022/11/24 00:09:18;;;;;;;16.08;5.30;;;6.90;99.90;;;;;;5111382;27;20050;-67
2022/11/24 00:11:44;;;;;;;15.32;5.10;;;6.90;99.90;;;;;;5111789;27;20039;-68
2022/11/24 00:14:10;;;;;;;17.05;5.38;;;6.90;99.90;;;;;;5109907;27;20031;-69
2022/11/24 00:16:37;;;;;;;16.42;4.78;;;6.90;99.90;;;;;;5110508;27;20122;-67
2022/11/24 00:19:05;;;;;;;13.82;5.28;;;6.90;99.90;;;;;;5108867;27;20083;-68
2022/11/24 00:21:31;;;;;;;21.80;5.35;;;6.90;99.90;;;;;;5129169;27;20638;-68
2022/11/24 00:23:58;;;;;;;16.48;5.10;;;6.90;99.90;;;;;;5113727;27;20535;-67
2022/11/24 00:26:26;;;;;;;14.52;4.75;;;6.90;99.90;;;;;;5114441;27;20144;-69
2022/11/24 00:28:54;;;;;;;14.77;4.20;;;6.90;99.90;;;;;;5110915;27;20043;-67
2022/11/24 00:31:23;;;;;;;15.48;4.40;;;6.90;99.90;;;;;;5095573;27;20515;-68
2022/11/24 00:33:51;;;;;;;17.58;4.47;;;6.90;99.90;;;;;;5110216;27;20040;-67
2022/11/24 00:36:18;;;;;;;14.68;4.30;;;6.90;99.90;;;;;;5111893;27;20073;-68
2022/11/24 00:38:44;;;;;;;15.77;4.88;;;6.90;99.90;;;;;;5107052;27;20036;-68
2022/11/24 00:41:10;;;;;;;17.17;4.18;;;6.90;99.90;;;;;;5111381;27;20118;-68
2022/11/24 00:43:36;;;;;;;16.40;5.03;;;6.90;99.90;;;;;;5111103;27;20434;-67
2022/11/24 00:46:02;;;;;;;15.00;4.22;;;6.90;99.90;;;;;;5113050;27;20031;-67
2022/11/24 00:48:29;;;;;;;15.98;3.60;;;6.90;99.90;;;;;;5111753;27;20062;-68
2022/11/24 00:50:59;;;;;;;16.52;3.78;;;6.90;99.90;;;;;;5113849;27;20039;-68
2022/11/24 00:53:26;;;;;;;18.02;4.35;;;7.00;99.90;;;;;;5112582;27;20046;-67
2022/11/24 00:55:52;;;;;;;17.80;4.93;;;7.00;99.90;;;;;;5094945;27;20085;-69
2022/11/24 00:58:18;;;;;;;13.43;3.88;;;7.00;99.90;;;;;;5111445;27;20047;-68
2022/11/24 01:00:44;;;;;;;22.70;3.95;;;7.00;99.90;;;;;;5109672;27;20435;-68
2022/11/24 01:03:09;;;;;;;20.63;4.53;;;7.00;99.90;;;;;;5095784;27;20135;-68
2022/11/24 01:05:36;;;;;;;18.38;4.63;;;7.00;99.90;;;;;;5112737;27;20055;-68
2022/11/24 01:08:01;;;;;;;16.80;3.80;;;7.00;99.90;;;;;;5111071;27;20082;-67
2022/11/24 01:10:27;;;;;;;20.83;4.53;;;7.00;99.90;;;;;;5108654;27;20127;-69
2022/11/24 01:12:52;;;;;;;22.70;4.60;;;7.00;99.90;;;;;;5109998;27;20028;-68
2022/11/24 01:15:18;;;;;;;14.25;3.70;;;7.00;99.90;;;;;;5095201;27;20497;-69
2022/11/24 01:17:44;;;;;;;17.73;4.20;;;7.00;99.90;;;;;;5113722;27;20045;-68
2022/11/24 01:20:10;;;;;;;24.30;3.95;;;7.00;99.90;;;;;;5112770;27;20047;-69
2022/11/24 01:22:37;;;;;;;17.08;3.78;;;7.10;99.90;;;;;;5096514;27;20477;-68
2022/11/24 01:25:05;;;;;;;18.50;3.90;;;7.00;99.90;;;;;;5113179;27;20050;-67
2022/11/24 01:27:31;;;;;;;24.10;3.60;;;7.00;99.90;;;;;;5095423;27;20122;-68
2022/11/24 01:29:56;;;;;;;15.82;3.85;;;7.00;99.90;;;;;;5112811;27;20118;-68
2022/11/24 01:32:22;;;;;;;18.90;3.92;;;7.00;99.90;;;;;;5112968;27;20075;-69
2022/11/24 01:34:48;;;;;;;21.60;4.18;;;7.00;99.90;;;;;;5108755;27;20057;-68
2022/11/24 01:37:14;;;;;;;17.65;3.60;;;7.00;99.90;;;;;;5093163;27;20100;-67
2022/11/24 01:39:40;;;;;;;20.70;3.75;;;7.00;99.90;;;;;;5111782;27;20031;-69
2022/11/24 01:42:05;;;;;;;21.88;4.57;;;7.00;99.90;;;;;;5105973;27;20041;-70
2022/11/24 01:44:31;;;;;;;19.92;3.83;;;7.10;99.90;;;;;;5109763;27;20092;-68
2022/11/24 01:47:18;;;;;;;23.38;4.50;;;7.10;99.90;;;;;;5095721;27;20047;-69
2022/11/24 01:49:47;;;;;;;18.98;3.63;;;7.10;99.90;;;;;;5112282;27;20039;-69
2022/11/24 01:52:25;;;;;;;18.50;4.57;;;7.10;99.90;;;;;;5108209;27;20047;-68
2022/11/24 01:54:59;;;;;;;24.83;5.05;;;7.10;99.90;;;;;;5110364;27;20039;-69
2022/11/24 01:57:29;;;;;;;19.67;3.45;;;7.20;99.90;;;;;;5112286;27;20039;-68
2022/11/24 02:00:21;;;;;;;21.08;4.72;;;7.20;99.90;;;;;;5112166;27;20069;-68
2022/11/24 02:02:46;;;;;;;18.47;3.63;;;7.20;99.90;;;;;;5101093;27;20050;-69
2022/11/24 02:05:37;;;;;;;20.25;3.78;;;7.20;99.90;;;;;;5110528;27;20489;-67
2022/11/24 02:08:08;;;;;;;22.95;4.70;;;7.30;99.90;;;;;;5120445;27;20054;-69
2022/11/24 02:10:34;;;;;;;18.75;3.90;;;7.20;99.90;;;;;;5122357;27;20123;-67
2022/11/24 02:13:00;;;;;;;21.25;4.40;;;7.30;99.90;;;;;;5109678;27;20606;-68
2022/11/24 02:15:27;;;;;;;21.52;3.80;;;7.30;99.90;;;;;;5110723;27;20076;-69
2022/11/24 02:17:53;;;;;;;13.32;3.00;;;7.30;99.90;;;;;;5112662;27;20039;-69
2022/11/24 02:20:18;;;;;;;18.27;3.50;;;7.30;99.90;;;;;;5103780;27;20047;-69
2022/11/24 02:23:01;;;;;;;21.73;4.07;;;7.30;99.90;;;;;;5085082;27;20055;-69
2022/11/24 02:25:35;;;;;;;19.48;3.70;;;7.30;99.90;;;;;;5107665;27;20064;-68
2022/11/24 02:28:06;;;;;;;22.17;4.10;;;7.30;99.90;;;;;;5109075;27;20043;-68
2022/11/24 02:30:32;;;;;;;18.88;3.28;;;7.40;99.90;;;;;;5109821;27;20385;-69
2022/11/24 02:32:58;;;;;;;19.98;3.42;;;7.40;99.90;;;;;;5111572;27;20046;-68
2022/11/24 02:35:25;;;;;;;17.60;3.22;;;7.30;99.90;;;;;;5107739;27;20043;-69
2022/11/24 02:37:51;;;;;;;18.90;3.70;;;7.40;99.90;;;;;;5109418;27;21587;-68
2022/11/24 02:40:24;;;;;;;15.18;3.08;;;7.40;99.90;;;;;;5105100;27;20043;-69
2022/11/24 02:42:52;;;;;;;20.23;3.55;;;7.40;99.90;;;;;;5092401;27;20374;-68
2022/11/24 02:45:19;;;;;;;23.27;4.07;;;7.50;99.90;;;;;;5107779;28;20058;-69
2022/11/24 02:47:45;;;;;;;18.95;3.20;;;7.50;99.90;;;;;;5112346;27;20055;-68
2022/11/24 02:50:11;;;;;;;17.38;3.35;;;7.50;99.90;;;;;;5110742;28;20096;-68
2022/11/24 02:52:36;;;;;;;19.38;3.00;;;7.50;99.90;;;;;;5112557;28;20100;-68
2022/11/24 02:55:03;;;;;;;21.48;4.38;;;7.50;99.90;;;;;;5110774;28;20038;-68
2022/11/24 02:57:29;;;;;;;18.17;3.28;;;7.50;99.90;;;;;;5112705;28;20369;-68
2022/11/24 02:59:54;;;;;;;18.60;3.42;;;7.50;99.90;;;;;;5113187;27;20081;-68
2022/11/24 03:02:20;;;;;;;22.52;4.50;;;7.50;99.90;;;;;;5095249;28;20068;-68
2022/11/24 03:04:45;;;;;;;16.83;3.28;;;7.50;99.90;;;;;;5114278;27;20084;-68
2022/11/24 03:07:11;;;;;;;14.65;3.65;;;7.50;99.90;;;;;;5109181;27;20456;-68
2022/11/24 03:09:37;;;;;;;16.20;3.08;;;7.50;99.90;;;;;;5115591;27;20426;-69
2022/11/24 03:12:02;;;;;;;21.70;3.38;;;7.50;99.90;;;;;;5112985;27;20027;-68
2022/11/24 03:14:28;;;;;;;15.57;3.03;;;7.50;99.90;;;;;;5114531;27;20035;-68
2022/11/24 03:16:54;;;;;;;19.50;3.75;;;7.40;99.90;;;;;;5113148;27;20813;-69
2022/11/24 03:19:19;;;;;;;17.90;3.58;;;7.40;99.90;;;;;;5114674;27;20043;-69
2022/11/24 03:21:45;;;;;;;22.05;3.60;;;7.40;99.90;;;;;;5098789;27;20126;-68
2022/11/24 03:24:10;;;;;;;22.27;3.63;;;7.40;99.90;;;;;;5111694;27;20047;-68
2022/11/24 03:26:36;;;;;;;13.20;2.80;;;7.40;99.90;;;;;;5111360;27;20039;-68
2022/11/24 03:29:02;;;;;;;15.38;3.22;;;7.40;99.90;;;;;;5113734;27;20400;-67
2022/11/24 03:31:27;;;;;;;20.67;2.85;;;7.40;99.90;;;;;;5114734;27;20035;-68
2022/11/24 03:33:53;;;;;;;15.95;3.30;;;7.40;99.90;;;;;;5113164;27;20077;-68
2022/11/24 03:36:19;;;;;;;17.70;2.80;;;7.40;99.90;;;;;;5113170;27;20102;-68
2022/11/24 03:38:44;;;;;;;16.33;3.03;;;7.30;99.90;;;;;;5110835;27;20050;-68
2022/11/24 03:41:10;;;;;;;14.63;2.90;;;7.30;99.90;;;;;;5112010;27;20038;-68
2022/11/24 03:43:36;;;;;;;22.20;3.38;;;7.30;99.90;;;;;;5112388;27;20039;-68
2022/11/24 03:46:01;;;;;;;15.25;2.50;;;7.30;99.90;;;;;;5114328;27;20039;-67
2022/11/24 03:48:27;;;;;;;18.02;2.92;;;7.30;99.90;;;;;;5108670;27;20054;-67
2022/11/24 03:50:59;;;;;;;13.10;2.83;;;7.20;99.90;;;;;;5114098;27;20092;-68
2022/11/24 03:53:27;;;;;;;18.35;2.70;;;7.30;99.90;;;;;;5113608;27;20031;-69
2022/11/24 03:55:53;;;;;;;16.52;2.67;;;7.20;99.90;;;;;;5096065;27;20035;-68
2022/11/24 03:58:18;;;;;;;14.20;2.67;;;7.20;99.90;;;;;;5109405;27;20096;-69
2022/11/24 04:00:45;;;;;;;12.90;3.50;;;7.20;99.90;;;;;;5115145;27;20047;-68
2022/11/24 04:03:11;;;;;;;14.90;2.92;;;7.30;99.90;;;;;;5113964;27;20039;-68
2022/11/24 04:05:36;;;;;;;16.80;2.67;;;7.20;99.90;;;;;;5114293;27;20099;-68
2022/11/24 04:08:04;;;;;;;16.02;2.63;;;7.20;99.90;;;;;;5132895;27;20043;-68
2022/11/24 04:10:31;;;;;;;15.15;3.05;;;7.20;99.90;;;;;;5094953;27;20044;-67
2022/11/24 04:12:57;;;;;;;16.05;3.08;;;7.20;99.90;;;;;;5115217;27;20047;-67
2022/11/24 04:15:22;;;;;;;11.18;3.20;;;7.20;99.90;;;;;;5111946;27;20048;-68
2022/11/24 04:17:49;;;;;;;12.65;2.42;;;7.20;99.90;;;;;;5114301;27;20038;-68
2022/11/24 04:20:15;;;;;;;14.85;2.40;;;7.20;99.90;;;;;;5113566;27;20405;-66
2022/11/24 04:22:41;;;;;;;13.82;2.83;;;7.20;99.90;;;;;;5114018;27;20114;-68
2022/11/24 04:25:08;;;;;;;20.65;3.97;;;7.20;99.90;;;;;;5113900;27;20078;-68
2022/11/24 04:27:35;;;;;;;11.02;2.42;;;7.20;99.90;;;;;;5115025;27;20071;-68
2022/11/24 04:30:01;;;;;;;15.82;2.80;;;7.20;99.90;;;;;;5112251;27;20039;-68
2022/11/24 04:32:27;;;;;;;16.00;2.67;;;7.20;99.90;;;;;;5117071;27;20177;-68
2022/11/24 04:34:52;;;;;;;12.00;2.72;;;7.20;99.90;;;;;;5115455;27;20118;-68
2022/11/24 04:37:18;;;;;;;16.08;2.65;;;7.20;99.90;;;;;;5111183;27;20456;-67
2022/11/24 04:39:45;;;;;;;14.50;2.65;;;7.20;99.90;;;;;;5112719;27;20031;-68
2022/11/24 04:42:11;;;;;;;12.68;2.60;;;7.20;99.90;;;;;;5112231;27;20517;-68
2022/11/24 04:44:36;;;;;;;14.32;2.55;;;7.20;99.90;;;;;;5112971;27;20034;-68
2022/11/24 04:47:02;;;;;;;16.05;3.30;;;7.20;99.90;;;;;;5111943;27;20039;-69
2022/11/24 04:49:28;;;;;;;16.10;2.40;;;7.20;99.90;;;;;;5114607;27;20031;-68
2022/11/24 04:51:54;;;;;;;17.63;2.67;;;7.10;99.90;;;;;;5110390;27;20041;-69
2022/11/24 04:54:20;;;;;;;16.92;2.88;;;7.10;99.90;;;;;;5112880;27;20704;-67
2022/11/24 04:56:50;;;;;;;14.00;2.33;;;7.10;99.90;;;;;;5111872;27;20049;-67
2022/11/24 04:59:17;;;;;;;11.27;2.95;;;7.10;99.90;;;;;;5112527;27;20047;-68
2022/11/24 05:01:44;;;;;;;12.07;2.40;;;7.10;99.90;;;;;;5110267;27;20071;-69
2022/11/24 05:04:11;;;;;;;10.50;2.42;;;7.00;99.90;;;;;;5111711;27;20042;-69
2022/11/24 05:06:37;;;;;;;14.77;2.47;;;7.00;99.90;;;;;;5091818;28;20460;-68
2022/11/24 05:09:03;;;;;;;14.82;2.42;;;7.00;99.90;;;;;;5109907;28;20054;-67
2022/11/24 05:11:29;;;;;;;14.63;3.08;;;7.00;99.90;;;;;;5105831;27;20047;-67
2022/11/24 05:13:54;;;;;;;17.38;2.70;;;7.00;99.90;;;;;;5100989;28;20054;-68
2022/11/24 05:16:20;;;;;;;16.65;2.50;;;7.00;99.90;;;;;;5088879;28;20039;-68
2022/11/24 05:18:46;;;;;;;13.73;2.38;;;7.00;99.90;;;;;;5078572;28;20100;-68
2022/11/24 05:21:11;;;;;;;12.05;2.50;;;7.00;99.90;;;;;;5107524;28;20459;-68
2022/11/24 05:23:37;;;;;;;16.00;2.70;;;7.00;99.90;;;;;;5106722;28;20050;-68
2022/11/24 05:26:04;;;;;;;16.75;3.00;;;7.00;99.90;;;;;;5103231;28;20398;-68
2022/11/24 05:28:30;;;;;;;15.20;3.08;;;7.00;99.90;;;;;;5105210;28;20050;-68
2022/11/24 05:31:00;;;;;;;13.15;3.30;;;7.00;99.90;;;;;;5099061;28;20044;-69
2022/11/24 05:33:27;;;;;;;12.57;3.25;;;7.00;99.90;;;;;;5103679;28;20039;-68
2022/11/24 05:35:53;;;;;;;10.82;2.58;;;6.90;99.90;;;;;;5103362;28;20030;-69
2022/11/24 05:38:20;;;;;;;15.00;2.85;;;6.90;99.90;;;;;;5106708;28;20490;-68
2022/11/24 05:40:45;;;;;;;13.63;3.53;;;6.90;99.90;;;;;;5084429;28;20066;-68
2022/11/24 05:43:15;;;;;;;13.38;2.30;;;6.90;99.90;;;;;;5104194;28;20047;-68
2022/11/24 05:45:42;;;;;;;15.95;3.10;;;6.90;99.90;;;;;;5106734;28;20525;-70
2022/11/24 05:48:10;;;;;;;13.88;3.03;;;6.90;99.90;;;;;;5106960;28;20114;-68
2022/11/24 05:50:36;;;;;;;12.63;2.03;;;6.90;99.90;;;;;;5105563;28;20455;-68
2022/11/24 05:53:08;;;;;;;18.25;2.60;;;6.90;99.90;;;;;;5109351;28;20058;-68
2022/11/24 05:55:35;;;;;;;14.35;2.28;;;6.90;99.90;;;;;;5109389;28;20062;-67
2022/11/24 05:58:02;;;;;;;13.60;2.58;;;6.90;99.90;;;;;;5107205;28;20035;-68
2022/11/24 06:00:29;;;;;;;9.60;2.10;;;6.90;99.90;;;;;;5105730;28;20032;-69
2022/11/24 06:02:59;;;;;;;14.68;2.58;;;6.90;99.90;;;;;;5103641;28;20085;-68
2022/11/24 06:05:26;;;;;;;16.30;2.75;;;6.90;99.90;;;;;;5105445;28;20085;-68
2022/11/24 06:07:52;;;;;;;11.93;2.47;;;6.90;99.90;;;;;;5109615;28;21463;-69
2022/11/24 06:10:19;;;;;;;14.38;2.35;;;6.90;99.90;;;;;;5104583;28;20394;-67
2022/11/24 06:12:45;;;;;;;14.48;2.17;;;6.90;99.90;;;;;;5102545;28;20044;-68
2022/11/24 06:15:12;;;;;;;14.70;2.65;;;7.00;99.90;;;;;;5091521;28;20063;-68
2022/11/24 06:17:38;;;;;;;12.57;2.42;;;7.00;99.90;;;;;;5107313;28;20079;-68
2022/11/24 06:20:05;;;;;;;15.50;3.00;;;7.00;99.90;;;;;;5094783;28;20043;-68
2022/11/24 06:22:30;;;;;;;17.35;3.50;;;7.10;99.90;;;;;;5109309;28;20035;-67
2022/11/24 06:24:56;;;;;;;15.32;2.85;;;7.10;99.90;;;;;;5086364;28;20051;-69
2022/11/24 06:27:22;;;;;;;17.13;2.75;;;7.10;99.90;;;;;;5090891;28;20043;-69
2022/11/24 06:29:47;;;;;;;15.27;2.47;;;7.10;99.90;;;;;;5104233;28;20043;-70
2022/11/24 06:32:13;;;;;;;12.55;3.03;;;7.20;99.90;;;;;;5092023;28;20087;-70
2022/11/24 06:34:39;;;;;;;22.50;3.83;;;7.10;99.90;;;;;;5108144;28;20032;-68
2022/11/24 06:37:05;;;;;;;16.15;4.10;;;7.10;99.90;;;;;;5108979;28;20390;-67
2022/11/24 06:39:30;;;;;;;13.60;2.60;;;7.20;99.90;;;;;;5105462;28;20035;-67
2022/11/24 06:41:56;;;;;;;16.05;3.58;;;7.20;99.90;;;;;;5090946;28;20061;-69
2022/11/24 06:44:22;;;;;;;18.73;4.40;;;7.20;99.90;;;;;;5108563;28;20553;-68
2022/11/24 06:46:47;;;;;;;19.98;4.68;;;7.20;99.90;;;;;;5105704;28;20490;-68
2022/11/24 06:49:13;;;;;;;17.52;3.55;;;7.20;99.90;;;;;;5105573;28;20069;-68
2022/11/24 06:51:39;;;;;;;18.25;5.50;;;7.20;99.90;;;;;;5108073;28;20032;-68
2022/11/24 06:54:09;;;;;;;18.60;5.85;;;7.20;99.90;;;;;;5092229;28;20038;-68
2022/11/24 06:56:35;;;;;;;15.70;4.82;;;7.10;99.90;;;;;;5103213;28;20032;-68
2022/11/24 06:59:01;;;;;;;18.45;4.30;;;7.20;99.90;;;;;;5108020;28;20127;-68
2022/11/24 07:01:28;;;;;;;13.18;3.95;;;7.20;99.90;;;;;;5109226;28;20299;-68
2022/11/24 07:03:55;;;;;;;16.40;3.92;;;7.20;99.90;;;;;;5107233;28;20047;-69
2022/11/24 07:06:23;;;;;;;19.08;3.95;;;7.30;99.90;;;;;;5099019;28;20058;-68
2022/11/24 07:08:49;;;;;;;15.00;3.90;;;7.30;99.90;;;;;;5106107;28;20079;-69
2022/11/24 07:11:18;;;;;;;11.90;3.47;;;7.30;99.90;;;;;;5104783;28;20119;-68
2022/11/24 07:13:44;;;;;;;13.07;3.13;;;7.30;99.90;;;;;;5104598;28;20114;-68
2022/11/24 07:16:16;;;;;;;13.15;3.67;;;7.40;99.90;;;;;;5103593;28;20054;-68
2022/11/24 07:18:43;;;;;;;19.38;4.78;;;7.40;99.90;;;;;;5091435;28;20047;-69
2022/11/24 07:21:09;;;;;;;14.27;3.10;;;7.40;99.90;;;;;;5109215;28;20068;-68
2022/11/24 07:23:35;;;;;;;21.63;5.05;;;7.40;99.90;;;;;;5109301;28;20035;-68
2022/11/24 07:26:02;;;;;;;22.98;4.75;;;7.40;99.90;;;;;;5109202;28;20387;-68
2022/11/24 07:28:28;;;;;;;14.90;3.55;;;7.40;99.90;;;;;;5107040;28;20071;-68
2022/11/24 07:30:54;;;;;;;17.13;3.88;;;7.50;99.90;;;;;;5108895;28;20039;-67
2022/11/24 07:33:23;;;;;;;15.88;3.70;;;7.50;99.90;;;;;;5108906;28;20040;-68
2022/11/24 07:35:50;;;;;;;16.27;3.60;;;7.50;99.90;;;;;;5110334;28;20435;-68
2022/11/24 07:38:16;;;;;;;12.48;3.55;;;7.50;99.90;;;;;;5109233;28;20506;-68
2022/11/24 07:40:41;;;;;;;12.10;3.90;;;7.50;99.90;;;;;;5108783;28;20082;-68
2022/11/24 07:43:07;;;;;;;15.50;3.75;;;7.50;99.90;;;;;;5092320;28;20048;-68
2022/11/24 07:45:33;;;;;;;15.18;3.78;;;7.60;99.90;;;;;;5109275;28;20141;-69
2022/11/24 07:47:58;;;;;;;16.17;4.05;;;7.60;99.90;;;;;;5109373;28;20040;-69
2022/11/24 07:50:24;;;;;;;12.90;4.93;;;7.60;99.90;;;;;;5111573;28;20046;-69
2022/11/24 07:52:50;;;;;;;12.52;3.95;;;7.60;99.90;;;;;;5113447;28;20046;-69
2022/11/24 07:55:15;;;;;;;9.10;3.85;;;7.60;99.90;;;;;;5112707;28;20039;-69
2022/11/24 07:57:41;;;;;;;14.38;3.78;;;7.60;99.90;;;;;;5113038;28;20428;-69
2022/11/24 08:00:08;;;;;;;14.32;3.83;;;7.60;99.90;;;;;;5095647;28;20040;-69
2022/11/24 08:02:33;;;;;;;12.55;3.88;;;7.60;99.90;;;;;;5095262;28;20048;-69
2022/11/24 08:04:59;;;;;;;14.40;4.97;;;7.60;99.90;;;;;;5113178;28;20040;-69
2022/11/24 08:07:24;;;;;;;14.65;3.70;;;7.60;99.90;;;;;;5094854;28;20048;-69
2022/11/24 08:09:51;;;;;;;16.60;3.97;;;7.60;99.90;;;;;;5112507;28;20467;-69
2022/11/24 08:12:20;;;;;;;13.50;4.00;;;7.60;99.90;;;;;;5095310;28;20048;-69
2022/11/24 08:14:48;;;;;;;11.85;4.40;;;7.60;99.90;;;;;;5112371;28;20099;-69
2022/11/24 08:17:13;;;;;;;11.65;3.15;;;7.60;99.90;;;;;;5095522;28;20079;-70
2022/11/24 08:19:39;;;;;;;12.90;4.38;;;7.60;99.90;;;;;;5112464;28;20559;-69
2022/11/24 08:22:05;;;;;;;12.98;4.18;;;7.60;99.90;;;;;;5112407;28;20070;-69
2022/11/24 08:24:30;;;;;;;12.38;3.60;;;7.60;99.90;;;;;;5112503;28;20376;-69
2022/11/24 08:26:56;;;;;;;17.63;4.38;;;7.50;99.90;;;;;;5112218;28;20040;-69
2022/11/24 08:29:21;;;;;;;11.70;3.28;;;7.50;99.90;;;;;;5111838;28;20506;-69
2022/11/24 08:31:47;;;;;;;10.13;4.15;;;7.50;99.90;;;;;;5112212;28;20039;-69
2022/11/24 08:34:13;;;;;;;11.02;3.10;;;7.50;99.90;;;;;;5112200;28;20036;-69
2022/11/24 08:36:38;;;;;;;11.82;3.45;;;7.50;99.90;;;;;;5111842;28;20044;-70
2022/11/24 08:39:04;;;;;;;13.45;3.30;;;7.50;99.90;;;;;;5106836;28;20070;-69
2022/11/24 08:41:32;;;;;;;11.45;3.33;;;7.60;99.90;;;;;;5094825;28;20079;-69
2022/11/24 08:43:57;;;;;;;8.20;2.88;;;7.60;99.90;;;;;;5111960;28;20043;-70
2022/11/24 08:46:23;;;;;;;6.95;2.60;;;7.60;99.90;;;;;;5094825;28;20056;-69
2022/11/24 08:48:51;;;;;;;6.72;2.00;;;7.70;99.90;;;;;;5111770;28;20419;-69
2022/11/24 08:51:20;;;;;;;7.45;2.28;;;7.70;99.90;;;;;;5112166;28;20521;-68
2022/11/24 08:53:46;;;;;;;9.65;2.47;;;7.70;99.90;;;;;;5111777;28;20074;-69
2022/11/24 08:56:13;;;;;;;5.68;1.98;;;7.80;99.90;;;;;;5111610;28;20067;-69
2022/11/24 08:58:39;;;;;;;5.00;1.60;;;7.80;99.90;;;;;;5111870;28;20083;-69
2022/11/24 09:01:11;;;;;;;6.18;1.48;;;7.90;99.90;;;;;;5105415;28;20565;-69
2022/11/24 09:03:38;;;;;;;9.50;2.75;;;7.90;99.90;;;;;;5110332;28;20398;-69
2022/11/24 09:06:04;;;;;;;3.92;1.60;;;8.00;99.90;;;;;;5113839;27;20055;-69
2022/11/24 09:08:31;;;;;;;5.47;1.73;;;8.10;99.90;;;;;;5114533;27;20160;-68
2022/11/24 09:11:05;;;;;;;4.53;1.75;;;8.10;99.90;;;;;;5114476;27;20031;-69
2022/11/24 09:13:31;;;;;;;4.30;1.77;;;8.10;99.90;;;;;;5114769;27;20486;-69
2022/11/24 09:16:08;;;;;;;4.07;1.73;;;8.10;99.90;;;;;;5114628;27;20143;-69
2022/11/24 09:18:34;;;;;;;4.43;1.90;;;8.00;99.90;;;;;;5108874;27;20054;-69
2022/11/24 09:21:11;;;;;;;3.80;1.65;;;8.00;99.90;;;;;;5114278;27;20477;-69
2022/11/24 09:23:37;;;;;;;3.08;1.50;;;8.10;99.90;;;;;;5114747;27;20886;-70
2022/11/24 09:26:11;;;;;;;6.28;2.95;;;8.10;99.90;;;;;;5097468;27;20039;-69
2022/11/24 09:28:37;;;;;;;5.82;2.20;;;8.30;99.90;;;;;;5114369;27;20122;-69
2022/11/24 09:31:04;;;;;;;5.43;2.10;;;8.40;99.90;;;;;;5096652;27;20149;-69
2022/11/24 09:33:31;;;;;;;5.35;2.05;;;8.50;99.90;;;;;;5114160;27;20031;-69
2022/11/24 09:35:57;;;;;;;7.45;2.60;;;8.70;99.90;;;;;;5114289;27;20046;-69
2022/11/24 09:38:23;;;;;;;3.92;2.30;;;8.90;99.90;;;;;;5114510;27;20061;-69
2022/11/24 09:40:49;;;;;;;4.60;2.50;;;9.20;99.90;;;;;;5114242;27;20043;-70
2022/11/24 09:43:40;;;;;;;7.22;3.45;;;9.40;99.90;;;;;;5114310;27;20507;-69
2022/11/24 09:46:17;;;;;;;4.25;2.63;;;9.30;99.90;;;;;;5097282;27;20485;-69
2022/11/24 09:48:48;;;;;;;8.65;2.90;;;9.30;99.90;;;;;;5114253;27;20397;-70
2022/11/24 09:51:15;;;;;;;5.95;3.17;;;9.20;99.90;;;;;;5114187;27;20039;-69
2022/11/24 09:53:52;;;;;;;7.65;3.25;;;9.10;99.90;;;;;;5097004;27;20061;-69
2022/11/24 09:56:24;;;;;;;5.95;3.30;;;9.10;99.90;;;;;;5114156;27;20048;-69
2022/11/24 09:58:53;;;;;;;6.70;3.45;;;9.00;99.90;;;;;;5113952;27;20071;-69
2022/11/24 10:01:35;;;;;;;5.18;3.63;;;9.00;99.90;;;;;;5096891;27;20086;-69
2022/11/24 10:04:02;;;;;;;7.60;3.80;;;9.00;99.90;;;;;;5113754;27;20067;-69
2022/11/24 10:06:43;;;;;;;8.82;4.63;;;9.00;99.90;;;;;;5114033;27;20085;-69
2022/11/24 10:09:22;;;;;;;10.55;5.07;;;9.00;99.90;;;;;;5113823;27;20047;-69
2022/11/24 10:12:16;;;;;;;5.60;3.80;;;9.30;99.90;;;;;;5113196;28;20039;-69
2022/11/24 10:14:47;;;;;;;9.90;4.05;;;9.50;99.90;;;;;;5114212;27;20485;-70
2022/11/24 10:17:33;;;;;;;8.20;4.13;;;9.80;99.90;;;;;;5096632;27;20031;-69
2022/11/24 10:20:04;;;;;;;8.55;4.45;;;9.90;99.90;;;;;;5113904;27;20043;-69
2022/11/24 10:22:48;;;;;;;9.05;4.47;;;10.10;99.90;;;;;;5113853;27;20035;-69
2022/11/24 10:25:25;;;;;;;6.97;4.22;;;10.30;99.90;;;;;;5113501;27;20043;-69
2022/11/24 10:28:02;;;;;;;7.60;4.00;;;10.30;99.90;;;;;;5113361;27;20062;-69
2022/11/24 10:30:28;;;;;;;9.95;4.30;;;10.20;99.90;;;;;;5096016;27;20136;-70
2022/11/24 10:33:00;;;;;;;9.02;4.20;;;10.00;99.90;;;;;;5113313;27;20092;-69
2022/11/24 10:35:37;;;;;;;7.05;4.03;;;10.00;99.90;;;;;;5113418;27;20131;-70
2022/11/24 10:38:56;;;;;;;7.40;4.43;;;10.10;99.90;;;;;;5113217;27;20438;-71
2022/11/24 10:41:52;;;;;;;10.43;4.70;;;10.00;99.90;;;;;;4995449;28;20052;-69
2022/11/24 10:44:18;;;;;;;7.35;4.95;;;10.10;99.90;;;;;;4990166;28;20054;-70
2022/11/24 10:46:44;;;;;;;11.20;5.30;;;10.00;99.90;;;;;;5011806;28;20165;-70
2022/11/24 10:49:18;;;;;;;7.95;4.22;;;10.10;99.90;;;;;;5011746;28;20128;-69
2022/11/24 10:51:55;;;;;;;10.77;4.50;;;10.10;99.90;;;;;;5006776;28;20034;-70
2022/11/24 10:54:22;;;;;;;9.32;4.68;;;10.20;99.90;;;;;;5011459;28;20451;-69
2022/11/24 10:56:51;;;;;;;12.10;4.97;;;10.20;99.90;;;;;;5011114;28;20049;-70
2022/11/24 10:59:30;;;;;;;10.07;4.45;;;10.20;99.90;;;;;;5011257;28;20102;-70
2022/11/24 11:01:57;;;;;;;12.30;5.60;;;10.20;99.90;;;;;;5011203;28;20045;-69
2022/11/24 11:04:34;;;;;;;10.20;4.30;;;10.30;99.90;;;;;;5011158;28;20042;-69
2022/11/24 11:07:27;;;;;;;14.90;5.05;;;10.30;99.90;;;;;;5011068;28;20089;-69
2022/11/24 11:10:22;;;;;;;9.43;4.70;;;10.30;99.90;;;;;;5009804;28;20053;-69
2022/11/24 11:12:48;;;;;;;10.95;5.40;;;10.30;99.90;;;;;;5011180;28;20053;-70
2022/11/24 11:15:35;;;;;;;9.75;4.05;;;10.30;99.90;;;;;;5054130;28;20047;-70
2022/11/24 11:18:00;;;;;;;10.70;4.20;;;10.40;99.90;;;;;;5112616;28;20028;-70
2022/11/24 11:20:32;;;;;;;10.57;4.60;;;11.20;99.90;;;;;;5095752;28;20043;-70
2022/11/24 11:23:03;;;;;;;9.40;4.80;;;12.70;99.90;;;;;;5110177;27;20404;-70
2022/11/24 11:25:34;;;;;;;13.75;4.60;;;12.90;99.90;;;;;;5115702;27;20031;-70
2022/11/24 11:28:27;;;;;;;9.07;3.92;;;12.40;99.90;;;;;;5116765;27;20047;-69
2022/11/24 11:31:02;;;;;;;7.38;3.45;;;12.00;99.90;;;;;;5099919;27;20031;-70
2022/11/24 11:33:30;;;;;;;9.88;4.35;;;12.40;99.90;;;;;;5116623;27;20039;-70
2022/11/24 11:35:59;;;;;;;12.05;3.97;;;12.60;99.90;;;;;;5117239;27;20031;-70
2022/11/24 11:38:34;;;;;;;13.68;4.03;;;12.10;99.90;;;;;;5099126;27;20160;-70
2022/11/24 11:41:01;;;;;;;7.97;3.17;;;11.90;99.90;;;;;;5116592;27;20035;-70
2022/11/24 11:43:44;;;;;;;12.68;3.58;;;12.00;99.90;;;;;;5099110;27;20091;-70
2022/11/24 11:46:16;;;;;;;9.18;4.15;;;12.30;99.90;;;;;;5116726;27;20568;-69
2022/11/24 11:48:45;;;;;;;;;;;12.70;99.90;;;;;;5117070;27;20039;-70
2022/11/24 11:51:55;;;;;;;8.50;2.63;;;14.30;99.90;;;;;;5133605;27;19930;-69
2022/11/24 11:54:43;;;;;;;10.80;2.85;;;14.30;99.90;;;;;;5116308;27;20046;-69
2022/11/24 11:57:18;;;;;;;8.35;2.70;;;14.40;99.90;;;;;;5116724;27;20359;-69
2022/11/24 12:00:02;;;;;;;11.70;3.03;;;13.70;99.90;;;;;;5115294;27;20397;-69
2022/11/24 12:02:31;;;;;;;10.40;3.10;;;13.30;99.90;;;;;;5112948;27;20118;-69
2022/11/24 12:05:28;;;;;;;10.90;3.22;;;13.00;99.90;;;;;;5115762;27;20118;-70
2022/11/24 12:08:12;;;;;;;11.45;2.85;;;12.70;99.90;;;;;;5111611;27;20051;-70
2022/11/24 12:10:46;;;;;;;11.88;2.97;;;12.40;99.90;;;;;;5098826;27;20200;-70
2022/11/24 12:13:42;;;;;;;14.52;3.67;;;13.20;99.90;;;;;;5115802;27;20046;-69
2022/11/24 12:16:32;;;;;;;10.77;2.90;;;13.70;99.90;;;;;;5098981;27;20481;-70
2022/11/24 12:19:07;;;;;;;11.95;3.47;;;14.30;99.90;;;;;;5115546;27;20039;-70
2022/11/24 12:21:52;;;;;;;8.55;2.42;;;15.00;99.90;;;;;;5115536;27;20121;-70
2022/11/24 12:24:46;;;;;;;11.70;2.90;;;15.10;99.90;;;;;;5116068;27;20082;-70
2022/11/24 12:27:37;;;;;;;8.40;2.05;;;14.70;99.90;;;;;;5115135;27;20039;-70
2022/11/24 12:30:10;;;;;;;9.75;2.30;;;14.50;99.90;;;;;;5110593;27;20822;-70
2022/11/24 12:33:10;;;;;;;8.95;2.58;;;14.30;99.90;;;;;;5113974;27;20485;-70
2022/11/24 12:35:45;;;;;;;10.43;2.30;;;14.80;99.90;;;;;;5115419;27;20133;-70
2022/11/24 12:38:41;;;;;;;10.93;2.10;;;14.90;99.90;;;;;;5098054;27;20055;-71
2022/11/24 12:41:20;;;;;;;10.93;2.17;;;15.00;99.90;;;;;;5115572;27;20159;-70
2022/11/24 12:43:51;;;;;;;12.13;2.85;;;14.70;99.90;;;;;;5115523;27;20066;-70
2022/11/24 12:46:35;;;;;;;10.68;2.45;;;14.10;99.90;;;;;;5115586;27;20043;-69
2022/11/24 12:49:04;;;;;;;10.25;2.10;;;13.90;99.90;;;;;;5115220;27;20031;-70
2022/11/24 12:51:38;;;;;;;11.18;2.38;;;13.90;99.90;;;;;;5098223;27;20459;-70
2022/11/24 12:54:11;;;;;;;13.48;2.05;;;13.70;99.90;;;;;;5098018;27;20506;-70
2022/11/24 12:56:42;;;;;;;12.07;2.70;;;13.50;99.90;;;;;;5115471;27;20416;-70
2022/11/24 12:59:17;;;;;;;8.77;2.47;;;13.40;99.90;;;;;;5115392;27;20054;-69
2022/11/24 13:02:02;;;;;;;8.05;2.00;;;13.20;99.90;;;;;;5098100;27;20096;-70